Time,TemperatureF,DewpointF,PressureIn,WindDirection,WindDirectionDegrees,WindSpeedMPH,WindSpeedGustMPH,Humidity,HourlyPrecipIn,Conditions,Clouds,dailyrainin,SoftwareType,DateUTC
2013-02-17 00:01:00,20.5,14.0,30.16,WNW,302,0.0,0.0,76,0.00,,,0.00,weatherlink.com 1.10,2013-02-17 05:01:00,
2013-02-17 00:16:00,19.1,13.0,30.16,WNW,302,0.0,0.0,78,0.00,,,0.00,weatherlink.com 1.10,2013-02-17 05:16:00,
2013-02-17 00:31:00,18.4,14.0,30.16,WNW,302,0.0,0.0,81,0.00,,,0.00,weatherlink.com 1.10,2013-02-17 05:31:00,
2013-02-17 00:46:00,18.5,14.0,30.16,WNW,302,0.0,0.0,83,0.00,,,0.00,weatherlink.com 1.10,2013-02-17 05:46:00,
2013-02-17 01:01:00,19.3,15.0,30.16,WNW,302,0.0,1.0,82,0.00,,,0.00,weatherlink.com 1.10,2013-02-17 06:01:00,
2013-02-17 01:16:00,19.3,14.0,30.17,WNW,302,0.0,0.0,81,0.00,,,0.00,weatherlink.com 1.10,2013-02-17 06:16:00,
2013-02-17 01:31:00,18.2,14.0,30.17,WNW,302,0.0,0.0,82,0.00,,,0.00,weatherlink.com 1.10,2013-02-17 06:31:00,
2013-02-17 01:46:00,17.3,13.0,30.17,WNW,302,0.0,0.0,83,0.00,,,0.00,weatherlink.com 1.10,2013-02-17 06:46:00,
2013-02-17 02:17:00,17.7,14.0,30.17,WNW,302,0.0,0.0,84,0.00,,,0.00,weatherlink.com 1.10,2013-02-17 07:17:00,
2013-02-17 02:32:00,17.0,13.0,30.17,WNW,302,0.0,0.0,84,0.00,,,0.00,weatherlink.com 1.10,2013-02-17 07:32:00,
2013-02-17 02:47:00,17.0,13.0,30.17,WNW,302,0.0,0.0,85,0.00,,,0.00,weatherlink.com 1.10,2013-02-17 07:47:00,
2013-02-17 03:02:00,16.9,13.0,30.17,WNW,302,0.0,0.0,85,0.00,,,0.00,weatherlink.com 1.10,2013-02-17 08:02:00,
2013-02-17 03:17:00,16.9,13.0,30.17,WNW,302,0.0,1.0,86,0.00,,,0.00,weatherlink.com 1.10,2013-02-17 08:17:00,
2013-02-17 03:32:00,16.9,13.0,30.17,WNW,302,0.0,0.0,86,0.00,,,0.00,weatherlink.com 1.10,2013-02-17 08:32:00,
2013-02-17 03:47:00,16.7,13.0,30.17,WNW,302,0.0,2.0,86,0.00,,,0.00,weatherlink.com 1.10,2013-02-17 08:47:00,
2013-02-17 04:02:00,16.6,13.0,30.17,WNW,302,0.0,1.0,86,0.00,,,0.00,weatherlink.com 1.10,2013-02-17 09:02:00,
2013-02-17 04:17:00,16.4,13.0,30.17,WNW,302,0.0,2.0,85,0.00,,,0.00,weatherlink.com 1.10,2013-02-17 09:17:00,
2013-02-17 04:32:00,16.2,13.0,30.17,WNW,302,1.0,2.0,85,0.00,,,0.00,weatherlink.com 1.10,2013-02-17 09:32:00,
2013-02-17 04:47:00,16.0,12.0,30.17,WNW,302,0.0,1.0,84,0.00,,,0.00,weatherlink.com 1.10,2013-02-17 09:47:00,
2013-02-17 05:17:00,15.5,11.0,30.17,WNW,302,0.0,1.0,82,0.00,,,0.00,weatherlink.com 1.10,2013-02-17 10:17:00,
2013-02-17 05:32:00,15.3,11.0,30.18,WNW,302,0.0,3.0,82,0.00,,,0.00,weatherlink.com 1.10,2013-02-17 10:32:00,
2013-02-17 05:47:00,15.1,11.0,30.18,WNW,302,0.0,0.0,82,0.00,,,0.00,weatherlink.com 1.10,2013-02-17 10:47:00,
2013-02-17 06:02:00,14.9,10.0,30.18,WNW,302,0.0,3.0,82,0.00,,,0.00,weatherlink.com 1.10,2013-02-17 11:02:00,
2013-02-17 06:17:00,14.7,10.0,30.19,WNW,302,0.0,0.0,82,0.00,,,0.00,weatherlink.com 1.10,2013-02-17 11:17:00,
2013-02-17 06:32:00,14.6,10.0,30.19,WNW,302,0.0,0.0,83,0.00,,,0.00,weatherlink.com 1.10,2013-02-17 11:32:00,
2013-02-17 06:47:00,14.9,11.0,30.19,WNW,302,0.0,4.0,83,0.00,,,0.00,weatherlink.com 1.10,2013-02-17 11:47:00,
2013-02-17 07:02:00,14.8,11.0,30.19,WNW,302,0.0,2.0,84,0.00,,,0.00,weatherlink.com 1.10,2013-02-17 12:02:00,
2013-02-17 07:17:00,14.6,11.0,30.19,WNW,302,0.0,3.0,84,0.00,,,0.00,weatherlink.com 1.10,2013-02-17 12:17:00,
2013-02-17 07:32:00,14.6,11.0,30.19,WNW,302,1.0,3.0,85,0.00,,,0.00,weatherlink.com 1.10,2013-02-17 12:32:00,
2013-02-17 07:47:00,14.8,11.0,30.19,WNW,302,1.0,5.0,84,0.00,,,0.00,weatherlink.com 1.10,2013-02-17 12:47:00,
2013-02-17 08:02:00,15.0,11.0,30.19,WNW,302,2.0,7.0,83,0.00,,,0.00,weatherlink.com 1.10,2013-02-17 13:02:00,
2013-02-17 08:17:00,15.8,11.0,30.19,WNW,302,3.0,6.0,82,0.00,,,0.00,weatherlink.com 1.10,2013-02-17 13:17:00,
2013-02-17 08:32:00,17.1,12.0,30.19,NW,306,2.0,6.0,80,0.00,,,0.00,weatherlink.com 1.10,2013-02-17 13:32:00,
2013-02-17 08:47:00,18.3,13.0,30.18,ESE,109,0.0,9.0,78,0.00,,,0.00,weatherlink.com 1.10,2013-02-17 13:47:00,
2013-02-17 09:02:00,19.4,13.0,30.18,East,101,5.0,9.0,77,0.00,,,0.00,weatherlink.com 1.10,2013-02-17 14:02:00,
2013-02-17 09:17:00,20.2,14.0,30.19,SE,134,6.0,11.0,76,0.00,,,0.00,weatherlink.com 1.10,2013-02-17 14:17:00,
2013-02-17 09:32:00,21.3,15.0,30.18,ESE,114,8.0,10.0,76,0.00,,,0.00,weatherlink.com 1.10,2013-02-17 14:32:00,
2013-02-17 09:47:00,22.6,16.0,30.19,SE,130,6.0,11.0,76,0.00,,,0.00,weatherlink.com 1.10,2013-02-17 14:47:00,
2013-02-17 10:02:00,23.5,16.0,30.18,SE,138,7.0,14.0,74,0.00,,,0.00,weatherlink.com 1.10,2013-02-17 15:02:00,
2013-02-17 10:17:00,24.7,17.0,30.18,ESE,111,4.0,11.0,73,0.00,,,0.00,weatherlink.com 1.10,2013-02-17 15:17:00,
2013-02-17 10:33:00,26.2,18.0,30.18,ESE,110,7.0,10.0,71,0.00,,,0.00,weatherlink.com 1.10,2013-02-17 15:33:00,
2013-02-17 10:48:00,26.6,18.0,30.18,SE,136,5.0,14.0,70,0.00,,,0.00,weatherlink.com 1.10,2013-02-17 15:48:00,
2013-02-17 11:03:00,27.7,19.0,30.18,SSE,151,6.0,14.0,69,0.00,,,0.00,weatherlink.com 1.10,2013-02-17 16:03:00,
2013-02-17 11:18:00,29.3,20.0,30.17,SE,136,9.0,12.0,68,0.00,,,0.00,weatherlink.com 1.10,2013-02-17 16:18:00,
2013-02-17 11:33:00,29.8,20.0,30.18,ESE,123,7.0,16.0,66,0.00,,,0.00,weatherlink.com 1.10,2013-02-17 16:33:00,
2013-02-17 11:48:00,31.0,20.0,30.17,ESE,118,9.0,15.0,64,0.00,,,0.00,weatherlink.com 1.10,2013-02-17 16:48:00,
2013-02-17 12:18:00,32.3,21.0,30.17,SE,136,10.0,14.0,64,0.00,,,0.00,weatherlink.com 1.10,2013-02-17 17:18:00,
2013-02-17 12:33:00,33.4,22.0,30.15,SSE,147,8.0,14.0,64,0.00,,,0.00,weatherlink.com 1.10,2013-02-17 17:33:00,
2013-02-17 12:48:00,34.4,22.0,30.16,SSE,148,5.0,14.0,62,0.00,,,0.00,weatherlink.com 1.10,2013-02-17 17:48:00,
2013-02-17 13:03:00,35.0,23.0,30.16,SSE,149,3.0,14.0,61,0.00,,,0.00,weatherlink.com 1.10,2013-02-17 18:03:00,
2013-02-17 13:18:00,35.8,23.0,30.14,SE,144,15.0,15.0,60,0.00,,,0.00,weatherlink.com 1.10,2013-02-17 18:18:00,
2013-02-17 13:33:00,35.9,23.0,30.13,SSE,159,6.0,18.0,59,0.00,,,0.00,weatherlink.com 1.10,2013-02-17 18:33:00,
2013-02-17 13:48:00,36.7,23.0,30.11,SE,134,7.0,17.0,58,0.00,,,0.00,weatherlink.com 1.10,2013-02-17 18:48:00,
2013-02-17 14:03:00,38.1,24.0,30.10,SE,146,4.0,14.0,58,0.00,,,0.00,weatherlink.com 1.10,2013-02-17 19:03:00,
2013-02-17 14:18:00,38.2,23.0,30.10,SE,130,6.0,16.0,55,0.00,,,0.00,weatherlink.com 1.10,2013-02-17 19:18:00,
2013-02-17 14:33:00,38.5,22.0,30.09,SSE,149,7.0,15.0,52,0.00,,,0.00,weatherlink.com 1.10,2013-02-17 19:33:00,
2013-02-17 14:48:00,38.6,23.0,30.08,SE,140,9.0,19.0,53,0.00,,,0.00,weatherlink.com 1.10,2013-02-17 19:48:00,
2013-02-17 15:03:00,39.0,23.0,30.07,SE,132,10.0,16.0,53,0.00,,,0.00,weatherlink.com 1.10,2013-02-17 20:03:00,
2013-02-17 15:18:00,39.2,23.0,30.06,SE,137,7.0,18.0,53,0.00,,,0.00,weatherlink.com 1.10,2013-02-17 20:18:00,
2013-02-17 15:33:00,39.3,24.0,30.05,SE,131,13.0,18.0,54,0.00,,,0.00,weatherlink.com 1.10,2013-02-17 20:33:00,
2013-02-17 15:48:00,39.3,24.0,30.05,ESE,120,8.0,17.0,54,0.00,,,0.00,weatherlink.com 1.10,2013-02-17 20:48:00,
2013-02-17 16:03:00,39.8,23.0,30.04,SE,136,7.0,17.0,52,0.00,,,0.00,weatherlink.com 1.10,2013-02-17 21:03:00,
2013-02-17 16:18:00,39.5,24.0,30.03,SE,134,9.0,18.0,54,0.00,,,0.00,weatherlink.com 1.10,2013-02-17 21:18:00,
2013-02-17 16:34:00,39.6,24.0,30.04,SSE,155,14.0,18.0,54,0.00,,,0.00,weatherlink.com 1.10,2013-02-17 21:34:00,
2013-02-17 16:49:00,40.0,24.0,30.02,ESE,118,11.0,17.0,54,0.00,,,0.00,weatherlink.com 1.10,2013-02-17 21:49:00,
2013-02-17 17:04:00,39.5,24.0,30.02,ESE,120,9.0,20.0,54,0.00,,,0.00,weatherlink.com 1.10,2013-02-17 22:04:00,
2013-02-17 17:19:00,38.8,24.0,30.01,SE,126,9.0,16.0,55,0.00,,,0.00,weatherlink.com 1.10,2013-02-17 22:19:00,
2013-02-17 17:34:00,38.7,24.0,30.01,SE,132,10.0,20.0,55,0.00,,,0.00,weatherlink.com 1.10,2013-02-17 22:34:00,
2013-02-17 17:49:00,38.6,24.0,30.01,SE,146,9.0,18.0,55,0.00,,,0.00,weatherlink.com 1.10,2013-02-17 22:49:00,
2013-02-17 18:04:00,38.3,23.0,30.00,SE,132,8.0,15.0,55,0.00,,,0.00,weatherlink.com 1.10,2013-02-17 23:04:00,
2013-02-17 18:19:00,37.9,23.0,30.00,SE,125,8.0,16.0,56,0.00,,,0.00,weatherlink.com 1.10,2013-02-17 23:19:00,
2013-02-17 18:34:00,37.4,23.0,30.00,ESE,117,9.0,17.0,57,0.00,,,0.00,weatherlink.com 1.10,2013-02-17 23:34:00,
2013-02-17 18:49:00,36.8,23.0,29.99,SE,132,3.0,14.0,58,0.00,,,0.00,weatherlink.com 1.10,2013-02-17 23:49:00,
2013-02-17 19:04:00,36.4,24.0,29.99,SE,134,9.0,11.0,60,0.00,,,0.00,weatherlink.com 1.10,2013-02-18 00:04:00,
2013-02-17 19:19:00,36.0,24.0,29.99,ESE,111,8.0,10.0,62,0.00,,,0.00,weatherlink.com 1.10,2013-02-18 00:19:00,
2013-02-17 19:34:00,35.9,24.0,29.98,ESE,112,7.0,13.0,63,0.00,,,0.00,weatherlink.com 1.10,2013-02-18 00:34:00,
2013-02-17 19:49:00,35.7,24.0,29.98,SE,131,7.0,14.0,63,0.00,,,0.00,weatherlink.com 1.10,2013-02-18 00:49:00,
2013-02-17 20:04:00,35.7,24.0,29.97,ESE,121,10.0,17.0,63,0.00,,,0.00,weatherlink.com 1.10,2013-02-18 01:04:00,
2013-02-17 20:19:00,35.8,24.0,29.97,ESE,119,10.0,17.0,62,0.00,,,0.00,weatherlink.com 1.10,2013-02-18 01:19:00,
2013-02-17 20:34:00,35.9,24.0,29.97,ESE,116,13.0,17.0,62,0.00,,,0.00,weatherlink.com 1.10,2013-02-18 01:34:00,
2013-02-17 20:49:00,35.9,24.0,29.96,ESE,121,10.0,18.0,62,0.00,,,0.00,weatherlink.com 1.10,2013-02-18 01:49:00,
2013-02-17 21:04:00,35.9,23.0,29.97,ESE,111,14.0,16.0,61,0.00,,,0.00,weatherlink.com 1.10,2013-02-18 02:04:00,
2013-02-17 21:19:00,36.0,24.0,29.97,SE,130,10.0,18.0,61,0.00,,,0.00,weatherlink.com 1.10,2013-02-18 02:19:00,
2013-02-17 21:34:00,35.8,24.0,29.97,ESE,116,11.0,17.0,62,0.00,,,0.00,weatherlink.com 1.10,2013-02-18 02:34:00,
2013-02-17 21:49:00,35.5,24.0,29.96,SE,134,8.0,22.0,63,0.00,,,0.00,weatherlink.com 1.10,2013-02-18 02:49:00,
2013-02-17 22:04:00,35.3,24.0,29.96,SE,133,9.0,16.0,64,0.00,,,0.00,weatherlink.com 1.10,2013-02-18 03:04:00,
2013-02-17 22:19:00,35.3,24.0,29.95,SSE,150,14.0,17.0,64,0.00,,,0.00,weatherlink.com 1.10,2013-02-18 03:19:00,
2013-02-17 22:34:00,35.0,24.0,29.94,ESE,119,12.0,19.0,65,0.00,,,0.00,weatherlink.com 1.10,2013-02-18 03:34:00,
2013-02-17 22:49:00,35.1,24.0,29.94,ESE,117,10.0,19.0,65,0.00,,,0.00,weatherlink.com 1.10,2013-02-18 03:49:00,
2013-02-17 23:04:00,35.2,24.0,29.94,SSE,154,11.0,17.0,65,0.00,,,0.00,weatherlink.com 1.10,2013-02-18 04:04:00,
2013-02-17 23:19:00,35.3,25.0,29.93,ESE,120,9.0,21.0,66,0.00,,,0.00,weatherlink.com 1.10,2013-02-18 04:19:00,
2013-02-17 23:34:00,35.3,25.0,29.92,SE,134,6.0,16.0,66,0.00,,,0.00,weatherlink.com 1.10,2013-02-18 04:34:00,
2013-02-17 23:49:00,35.5,25.0,29.92,SE,138,8.0,18.0,66,0.00,,,0.00,weatherlink.com 1.10,2013-02-18 04:49:00,